sensor_id;sensor_type;location;lat;lon;timestamp;temperature;humidity
19941;DHT22;10132;50.864;5.176;2023-09-30T00:01:03;10.90;99.90
19941;DHT22;10132;50.864;5.176;2023-09-30T00:03:11;11.00;99.90
19941;DHT22;10132;50.864;5.176;2023-09-30T00:05:13;11.10;99.90
19941;DHT22;10132;50.864;5.176;2023-09-30T00:07:15;11.10;99.90
19941;DHT22;10132;50.864;5.176;2023-09-30T00:09:17;11.00;99.90
19941;DHT22;10132;50.864;5.176;2023-09-30T00:11:19;11.00;99.90
19941;DHT22;10132;50.864;5.176;2023-09-30T00:13:21;11.20;99.90
19941;DHT22;10132;50.864;5.176;2023-09-30T00:15:23;11.20;99.90
19941;DHT22;10132;50.864;5.176;2023-09-30T00:17:25;11.20;99.90
19941;DHT22;10132;50.864;5.176;2023-09-30T00:19:28;11.20;99.90
19941;DHT22;10132;50.864;5.176;2023-09-30T00:21:32;11.20;99.90
19941;DHT22;10132;50.864;5.176;2023-09-30T00:23:34;11.30;99.90
19941;DHT22;10132;50.864;5.176;2023-09-30T00:25:36;11.20;99.90
19941;DHT22;10132;50.864;5.176;2023-09-30T00:27:40;11.10;99.90
19941;DHT22;10132;50.864;5.176;2023-09-30T00:29:42;11.00;99.90
19941;DHT22;10132;50.864;5.176;2023-09-30T00:31:43;11.10;99.90
19941;DHT22;10132;50.864;5.176;2023-09-30T00:33:45;11.10;99.90
19941;DHT22;10132;50.864;5.176;2023-09-30T00:35:49;11.10;99.90
19941;DHT22;10132;50.864;5.176;2023-09-30T00:37:51;11.10;99.90
19941;DHT22;10132;50.864;5.176;2023-09-30T00:39:53;10.90;99.90
19941;DHT22;10132;50.864;5.176;2023-09-30T00:41:56;10.80;99.90
19941;DHT22;10132;50.864;5.176;2023-09-30T00:43:59;10.80;99.90
19941;DHT22;10132;50.864;5.176;2023-09-30T00:46:02;10.70;99.90
19941;DHT22;10132;50.864;5.176;2023-09-30T00:48:07;10.70;99.90
19941;DHT22;10132;50.864;5.176;2023-09-30T00:50:09;10.70;99.90
19941;DHT22;10132;50.864;5.176;2023-09-30T00:52:14;10.80;99.90
19941;DHT22;10132;50.864;5.176;2023-09-30T00:54:17;10.90;99.90
19941;DHT22;10132;50.864;5.176;2023-09-30T00:56:19;10.80;99.90
19941;DHT22;10132;50.864;5.176;2023-09-30T00:58:25;10.70;99.90
19941;DHT22;10132;50.864;5.176;2023-09-30T01:00:29;10.80;99.90
19941;DHT22;10132;50.864;5.176;2023-09-30T01:02:31;10.80;99.90
19941;DHT22;10132;50.864;5.176;2023-09-30T01:04:35;10.80;99.90
19941;DHT22;10132;50.864;5.176;2023-09-30T01:06:39;10.80;99.90
19941;DHT22;10132;50.864;5.176;2023-09-30T01:08:42;10.80;99.90
19941;DHT22;10132;50.864;5.176;2023-09-30T01:10:44;10.90;99.90
19941;DHT22;10132;50.864;5.176;2023-09-30T01:12:46;10.80;99.90
19941;DHT22;10132;50.864;5.176;2023-09-30T01:14:48;10.70;99.90
19941;DHT22;10132;50.864;5.176;2023-09-30T01:16:50;10.80;99.90
19941;DHT22;10132;50.864;5.176;2023-09-30T01:18:52;10.90;99.90
19941;DHT22;10132;50.864;5.176;2023-09-30T01:20:55;11.10;99.90
19941;DHT22;10132;50.864;5.176;2023-09-30T01:22:58;11.20;99.90
19941;DHT22;10132;50.864;5.176;2023-09-30T01:25:00;11.30;99.90
19941;DHT22;10132;50.864;5.176;2023-09-30T01:27:02;11.50;99.90
19941;DHT22;10132;50.864;5.176;2023-09-30T01:29:03;11.50;99.90
19941;DHT22;10132;50.864;5.176;2023-09-30T01:31:05;11.60;99.90
19941;DHT22;10132;50.864;5.176;2023-09-30T01:33:07;11.50;99.90
19941;DHT22;10132;50.864;5.176;2023-09-30T01:35:09;11.20;99.90
19941;DHT22;10132;50.864;5.176;2023-09-30T01:37:11;11.10;99.90
19941;DHT22;10132;50.864;5.176;2023-09-30T01:39:15;10.90;99.90
19941;DHT22;10132;50.864;5.176;2023-09-30T01:41:17;10.80;99.90
19941;DHT22;10132;50.864;5.176;2023-09-30T01:43:19;10.70;99.90
19941;DHT22;10132;50.864;5.176;2023-09-30T01:45:21;10.60;99.90
19941;DHT22;10132;50.864;5.176;2023-09-30T01:47:23;10.50;99.90
19941;DHT22;10132;50.864;5.176;2023-09-30T01:49:25;10.40;99.90
19941;DHT22;10132;50.864;5.176;2023-09-30T01:51:27;10.40;99.90
19941;DHT22;10132;50.864;5.176;2023-09-30T01:53:30;10.40;99.90
19941;DHT22;10132;50.864;5.176;2023-09-30T01:55:33;10.60;99.90
19941;DHT22;10132;50.864;5.176;2023-09-30T01:57:36;10.60;99.90
19941;DHT22;10132;50.864;5.176;2023-09-30T01:59:38;10.70;99.90
19941;DHT22;10132;50.864;5.176;2023-09-30T02:01:40;10.60;99.90
19941;DHT22;10132;50.864;5.176;2023-09-30T02:03:41;10.60;99.90
19941;DHT22;10132;50.864;5.176;2023-09-30T02:05:43;10.60;99.90
19941;DHT22;10132;50.864;5.176;2023-09-30T02:07:45;10.60;99.90
19941;DHT22;10132;50.864;5.176;2023-09-30T02:09:47;10.50;99.90
19941;DHT22;10132;50.864;5.176;2023-09-30T02:11:51;10.40;99.90
19941;DHT22;10132;50.864;5.176;2023-09-30T02:13:52;10.30;99.90
19941;DHT22;10132;50.864;5.176;2023-09-30T02:15:54;10.10;99.90
19941;DHT22;10132;50.864;5.176;2023-09-30T02:17:57;10.00;99.90
19941;DHT22;10132;50.864;5.176;2023-09-30T02:20:01;10.00;99.90
19941;DHT22;10132;50.864;5.176;2023-09-30T02:22:06;10.10;99.90
19941;DHT22;10132;50.864;5.176;2023-09-30T02:24:08;10.20;99.90
19941;DHT22;10132;50.864;5.176;2023-09-30T02:26:10;10.20;99.90
19941;DHT22;10132;50.864;5.176;2023-09-30T02:28:14;10.30;99.90
19941;DHT22;10132;50.864;5.176;2023-09-30T02:30:16;10.30;99.90
19941;DHT22;10132;50.864;5.176;2023-09-30T02:32:18;10.40;99.90
19941;DHT22;10132;50.864;5.176;2023-09-30T02:34:20;10.40;99.90
19941;DHT22;10132;50.864;5.176;2023-09-30T02:36:22;10.50;99.90
19941;DHT22;10132;50.864;5.176;2023-09-30T02:38:24;10.50;99.90
19941;DHT22;10132;50.864;5.176;2023-09-30T02:40:26;10.30;99.90
19941;DHT22;10132;50.864;5.176;2023-09-30T02:42:28;10.10;99.90
19941;DHT22;10132;50.864;5.176;2023-09-30T02:44:31;10.10;99.90
19941;DHT22;10132;50.864;5.176;2023-09-30T02:46:33;10.10;99.90
19941;DHT22;10132;50.864;5.176;2023-09-30T02:48:35;10.10;99.90
19941;DHT22;10132;50.864;5.176;2023-09-30T02:50:37;10.10;99.90
19941;DHT22;10132;50.864;5.176;2023-09-30T02:52:41;10.10;99.90
19941;DHT22;10132;50.864;5.176;2023-09-30T02:54:43;10.00;99.90
19941;DHT22;10132;50.864;5.176;2023-09-30T02:56:44;10.10;99.90
19941;DHT22;10132;50.864;5.176;2023-09-30T02:58:46;10.20;99.90
19941;DHT22;10132;50.864;5.176;2023-09-30T03:00:50;10.40;99.90
19941;DHT22;10132;50.864;5.176;2023-09-30T03:02:53;10.50;99.90
19941;DHT22;10132;50.864;5.176;2023-09-30T03:04:55;10.40;99.90
19941;DHT22;10132;50.864;5.176;2023-09-30T03:06:58;10.30;99.90
19941;DHT22;10132;50.864;5.176;2023-09-30T03:09:00;10.30;99.90
19941;DHT22;10132;50.864;5.176;2023-09-30T03:11:03;10.30;99.90
19941;DHT22;10132;50.864;5.176;2023-09-30T03:13:06;10.30;99.90
19941;DHT22;10132;50.864;5.176;2023-09-30T03:15:09;10.30;99.90
19941;DHT22;10132;50.864;5.176;2023-09-30T03:17:13;10.30;99.90
19941;DHT22;10132;50.864;5.176;2023-09-30T03:19:15;10.40;99.90
19941;DHT22;10132;50.864;5.176;2023-09-30T03:21:17;10.50;99.90
19941;DHT22;10132;50.864;5.176;2023-09-30T03:23:18;10.60;99.90
19941;DHT22;10132;50.864;5.176;2023-09-30T03:25:20;10.60;99.90
19941;DHT22;10132;50.864;5.176;2023-09-30T03:27:23;10.50;99.90
19941;DHT22;10132;50.864;5.176;2023-09-30T03:29:24;10.50;99.90
19941;DHT22;10132;50.864;5.176;2023-09-30T03:31:27;10.50;99.90
19941;DHT22;10132;50.864;5.176;2023-09-30T03:33:30;10.50;99.90
19941;DHT22;10132;50.864;5.176;2023-09-30T03:35:32;10.50;99.90
19941;DHT22;10132;50.864;5.176;2023-09-30T03:37:34;10.50;99.90
19941;DHT22;10132;50.864;5.176;2023-09-30T03:39:36;10.50;99.90
19941;DHT22;10132;50.864;5.176;2023-09-30T03:41:38;10.40;99.90
19941;DHT22;10132;50.864;5.176;2023-09-30T03:43:40;10.40;99.90
19941;DHT22;10132;50.864;5.176;2023-09-30T03:45:42;10.40;99.90
19941;DHT22;10132;50.864;5.176;2023-09-30T03:47:44;10.50;99.90
19941;DHT22;10132;50.864;5.176;2023-09-30T03:49:47;10.40;99.90
19941;DHT22;10132;50.864;5.176;2023-09-30T03:51:49;10.30;99.90
19941;DHT22;10132;50.864;5.176;2023-09-30T03:53:51;10.30;99.90
19941;DHT22;10132;50.864;5.176;2023-09-30T03:55:53;10.30;99.90
19941;DHT22;10132;50.864;5.176;2023-09-30T03:57:56;10.40;99.90
19941;DHT22;10132;50.864;5.176;2023-09-30T03:59:58;10.50;99.90
19941;DHT22;10132;50.864;5.176;2023-09-30T04:01:59;10.50;99.90
19941;DHT22;10132;50.864;5.176;2023-09-30T04:04:02;10.40;99.90
19941;DHT22;10132;50.864;5.176;2023-09-30T04:06:07;10.30;99.90
19941;DHT22;10132;50.864;5.176;2023-09-30T04:08:08;10.20;99.90
19941;DHT22;10132;50.864;5.176;2023-09-30T04:10:11;10.20;99.90
19941;DHT22;10132;50.864;5.176;2023-09-30T04:12:13;10.20;99.90
19941;DHT22;10132;50.864;5.176;2023-09-30T04:14:15;10.20;99.90
19941;DHT22;10132;50.864;5.176;2023-09-30T04:16:18;10.20;99.90
19941;DHT22;10132;50.864;5.176;2023-09-30T04:18:20;10.20;99.90
19941;DHT22;10132;50.864;5.176;2023-09-30T04:20:22;10.30;99.90
19941;DHT22;10132;50.864;5.176;2023-09-30T04:22:28;10.30;99.90
19941;DHT22;10132;50.864;5.176;2023-09-30T04:24:31;10.30;99.90
19941;DHT22;10132;50.864;5.176;2023-09-30T04:26:34;10.10;99.90
19941;DHT22;10132;50.864;5.176;2023-09-30T04:28:37;10.10;99.90
19941;DHT22;10132;50.864;5.176;2023-09-30T04:30:39;9.90;99.90
19941;DHT22;10132;50.864;5.176;2023-09-30T04:32:41;9.70;99.90
19941;DHT22;10132;50.864;5.176;2023-09-30T04:34:43;9.60;99.90
19941;DHT22;10132;50.864;5.176;2023-09-30T04:36:47;9.60;99.90
19941;DHT22;10132;50.864;5.176;2023-09-30T04:38:52;9.60;99.90
19941;DHT22;10132;50.864;5.176;2023-09-30T04:40:54;9.50;99.90
19941;DHT22;10132;50.864;5.176;2023-09-30T04:42:57;9.50;99.90
19941;DHT22;10132;50.864;5.176;2023-09-30T04:45:00;9.40;99.90
19941;DHT22;10132;50.864;5.176;2023-09-30T04:47:01;9.40;99.90
19941;DHT22;10132;50.864;5.176;2023-09-30T04:49:05;9.60;99.90
19941;DHT22;10132;50.864;5.176;2023-09-30T04:51:07;9.70;99.90
19941;DHT22;10132;50.864;5.176;2023-09-30T04:53:09;9.80;99.90
19941;DHT22;10132;50.864;5.176;2023-09-30T04:55:15;9.70;99.90
19941;DHT22;10132;50.864;5.176;2023-09-30T04:57:17;9.80;99.90
19941;DHT22;10132;50.864;5.176;2023-09-30T04:59:19;9.70;99.90
19941;DHT22;10132;50.864;5.176;2023-09-30T05:01:22;9.60;99.90
19941;DHT22;10132;50.864;5.176;2023-09-30T05:03:25;9.50;99.90
19941;DHT22;10132;50.864;5.176;2023-09-30T05:05:27;9.50;99.90
19941;DHT22;10132;50.864;5.176;2023-09-30T05:07:30;9.50;99.90
19941;DHT22;10132;50.864;5.176;2023-09-30T05:09:31;9.50;99.90
19941;DHT22;10132;50.864;5.176;2023-09-30T05:11:34;9.50;99.90
19941;DHT22;10132;50.864;5.176;2023-09-30T05:13:36;9.70;99.90
19941;DHT22;10132;50.864;5.176;2023-09-30T05:15:38;9.90;99.90
19941;DHT22;10132;50.864;5.176;2023-09-30T05:17:42;10.00;99.90
19941;DHT22;10132;50.864;5.176;2023-09-30T05:19:45;10.10;99.90
19941;DHT22;10132;50.864;5.176;2023-09-30T05:21:47;10.00;99.90
19941;DHT22;10132;50.864;5.176;2023-09-30T05:23:49;9.80;99.90
19941;DHT22;10132;50.864;5.176;2023-09-30T05:25:51;9.80;99.90
19941;DHT22;10132;50.864;5.176;2023-09-30T05:27:55;9.80;99.90
19941;DHT22;10132;50.864;5.176;2023-09-30T05:29:57;9.70;99.90
19941;DHT22;10132;50.864;5.176;2023-09-30T05:31:58;9.70;99.90
19941;DHT22;10132;50.864;5.176;2023-09-30T05:34:00;9.70;99.90
19941;DHT22;10132;50.864;5.176;2023-09-30T05:36:04;9.70;99.90
19941;DHT22;10132;50.864;5.176;2023-09-30T05:38:07;9.70;99.90
19941;DHT22;10132;50.864;5.176;2023-09-30T05:40:09;9.60;99.90
19941;DHT22;10132;50.864;5.176;2023-09-30T05:42:20;9.50;99.90
19941;DHT22;10132;50.864;5.176;2023-09-30T05:44:24;9.40;99.90
19941;DHT22;10132;50.864;5.176;2023-09-30T05:46:26;9.50;99.90
19941;DHT22;10132;50.864;5.176;2023-09-30T05:48:28;9.50;99.90
19941;DHT22;10132;50.864;5.176;2023-09-30T05:50:32;9.50;99.90
19941;DHT22;10132;50.864;5.176;2023-09-30T05:52:35;9.40;99.90
19941;DHT22;10132;50.864;5.176;2023-09-30T05:54:38;9.40;99.90
19941;DHT22;10132;50.864;5.176;2023-09-30T05:56:39;9.60;99.90
19941;DHT22;10132;50.864;5.176;2023-09-30T05:58:43;9.80;99.90
19941;DHT22;10132;50.864;5.176;2023-09-30T06:00:46;10.00;99.90
19941;DHT22;10132;50.864;5.176;2023-09-30T06:02:49;10.10;99.90
19941;DHT22;10132;50.864;5.176;2023-09-30T06:04:52;10.30;99.90
19941;DHT22;10132;50.864;5.176;2023-09-30T06:06:54;10.40;99.90
19941;DHT22;10132;50.864;5.176;2023-09-30T06:08:57;10.50;99.90
19941;DHT22;10132;50.864;5.176;2023-09-30T06:10:59;10.50;99.90
19941;DHT22;10132;50.864;5.176;2023-09-30T06:13:01;10.60;99.90
19941;DHT22;10132;50.864;5.176;2023-09-30T06:15:03;10.60;99.90
19941;DHT22;10132;50.864;5.176;2023-09-30T06:17:06;10.70;99.90
19941;DHT22;10132;50.864;5.176;2023-09-30T06:19:08;10.70;99.90
19941;DHT22;10132;50.864;5.176;2023-09-30T06:21:11;10.70;99.90
19941;DHT22;10132;50.864;5.176;2023-09-30T06:23:14;10.70;99.90
19941;DHT22;10132;50.864;5.176;2023-09-30T06:25:17;10.80;99.90
19941;DHT22;10132;50.864;5.176;2023-09-30T06:27:18;10.80;99.90
19941;DHT22;10132;50.864;5.176;2023-09-30T06:29:21;10.70;99.90
19941;DHT22;10132;50.864;5.176;2023-09-30T06:31:23;10.80;99.90
19941;DHT22;10132;50.864;5.176;2023-09-30T06:33:27;11.00;99.90
19941;DHT22;10132;50.864;5.176;2023-09-30T06:35:30;11.20;99.90
19941;DHT22;10132;50.864;5.176;2023-09-30T06:37:38;11.40;99.90
19941;DHT22;10132;50.864;5.176;2023-09-30T06:39:40;11.50;99.90
19941;DHT22;10132;50.864;5.176;2023-09-30T06:41:42;11.60;99.90
19941;DHT22;10132;50.864;5.176;2023-09-30T06:43:44;11.70;99.90
19941;DHT22;10132;50.864;5.176;2023-09-30T06:45:47;11.90;99.90
19941;DHT22;10132;50.864;5.176;2023-09-30T06:47:49;12.00;99.90
19941;DHT22;10132;50.864;5.176;2023-09-30T06:49:53;12.10;99.90
19941;DHT22;10132;50.864;5.176;2023-09-30T06:51:55;12.20;99.90
19941;DHT22;10132;50.864;5.176;2023-09-30T06:53:57;12.30;99.90
19941;DHT22;10132;50.864;5.176;2023-09-30T06:55:59;12.20;99.90
19941;DHT22;10132;50.864;5.176;2023-09-30T06:58:02;12.10;99.90
19941;DHT22;10132;50.864;5.176;2023-09-30T07:00:09;12.20;99.90
19941;DHT22;10132;50.864;5.176;2023-09-30T07:02:12;12.30;99.90
19941;DHT22;10132;50.864;5.176;2023-09-30T07:04:14;12.40;99.90
19941;DHT22;10132;50.864;5.176;2023-09-30T07:06:23;12.40;99.90
19941;DHT22;10132;50.864;5.176;2023-09-30T07:08:25;12.50;99.90
19941;DHT22;10132;50.864;5.176;2023-09-30T07:10:27;12.60;99.90
19941;DHT22;10132;50.864;5.176;2023-09-30T07:12:29;12.40;99.90
19941;DHT22;10132;50.864;5.176;2023-09-30T07:14:32;12.50;99.90
19941;DHT22;10132;50.864;5.176;2023-09-30T07:16:34;12.70;99.90
19941;DHT22;10132;50.864;5.176;2023-09-30T07:18:36;12.70;99.90
19941;DHT22;10132;50.864;5.176;2023-09-30T07:20:38;12.60;99.90
19941;DHT22;10132;50.864;5.176;2023-09-30T07:22:41;12.60;99.90
19941;DHT22;10132;50.864;5.176;2023-09-30T07:24:43;12.60;99.90
19941;DHT22;10132;50.864;5.176;2023-09-30T07:26:46;12.60;99.90
19941;DHT22;10132;50.864;5.176;2023-09-30T07:28:47;12.60;99.90
19941;DHT22;10132;50.864;5.176;2023-09-30T07:30:49;12.70;99.90
19941;DHT22;10132;50.864;5.176;2023-09-30T07:32:51;12.50;99.90
19941;DHT22;10132;50.864;5.176;2023-09-30T07:34:55;12.60;99.90
19941;DHT22;10132;50.864;5.176;2023-09-30T07:36:57;12.70;99.90
19941;DHT22;10132;50.864;5.176;2023-09-30T07:39:00;12.70;99.90
19941;DHT22;10132;50.864;5.176;2023-09-30T07:41:02;12.90;99.90
19941;DHT22;10132;50.864;5.176;2023-09-30T07:43:05;13.00;99.90
19941;DHT22;10132;50.864;5.176;2023-09-30T07:45:08;13.00;99.90
19941;DHT22;10132;50.864;5.176;2023-09-30T07:47:11;13.00;99.90
19941;DHT22;10132;50.864;5.176;2023-09-30T07:49:13;13.00;99.90
19941;DHT22;10132;50.864;5.176;2023-09-30T07:51:15;13.20;99.90
19941;DHT22;10132;50.864;5.176;2023-09-30T07:53:17;13.40;99.90
19941;DHT22;10132;50.864;5.176;2023-09-30T07:55:20;13.50;99.90
19941;DHT22;10132;50.864;5.176;2023-09-30T07:57:23;13.40;99.90
19941;DHT22;10132;50.864;5.176;2023-09-30T07:59:25;13.40;99.90
19941;DHT22;10132;50.864;5.176;2023-09-30T08:01:27;13.50;99.90
19941;DHT22;10132;50.864;5.176;2023-09-30T08:03:29;13.60;99.90
19941;DHT22;10132;50.864;5.176;2023-09-30T08:05:31;13.60;99.90
19941;DHT22;10132;50.864;5.176;2023-09-30T08:07:33;13.80;99.90
19941;DHT22;10132;50.864;5.176;2023-09-30T08:09:34;13.90;99.90
19941;DHT22;10132;50.864;5.176;2023-09-30T08:11:39;14.00;99.90
19941;DHT22;10132;50.864;5.176;2023-09-30T08:13:41;13.80;99.90
19941;DHT22;10132;50.864;5.176;2023-09-30T08:15:43;13.60;99.90
19941;DHT22;10132;50.864;5.176;2023-09-30T08:17:45;13.50;99.90
19941;DHT22;10132;50.864;5.176;2023-09-30T08:19:47;13.50;99.90
19941;DHT22;10132;50.864;5.176;2023-09-30T08:21:48;13.40;99.90
19941;DHT22;10132;50.864;5.176;2023-09-30T08:23:50;13.60;99.90
19941;DHT22;10132;50.864;5.176;2023-09-30T08:25:52;13.80;99.90
19941;DHT22;10132;50.864;5.176;2023-09-30T08:27:56;14.10;99.90
19941;DHT22;10132;50.864;5.176;2023-09-30T08:29:58;14.20;99.90
19941;DHT22;10132;50.864;5.176;2023-09-30T08:32:00;14.00;99.90
19941;DHT22;10132;50.864;5.176;2023-09-30T08:34:01;13.80;99.90
19941;DHT22;10132;50.864;5.176;2023-09-30T08:36:05;13.70;99.90
19941;DHT22;10132;50.864;5.176;2023-09-30T08:38:09;13.80;99.90
19941;DHT22;10132;50.864;5.176;2023-09-30T08:40:11;13.90;99.90
19941;DHT22;10132;50.864;5.176;2023-09-30T08:42:13;14.00;99.90
19941;DHT22;10132;50.864;5.176;2023-09-30T08:44:17;14.20;99.90
19941;DHT22;10132;50.864;5.176;2023-09-30T08:46:19;14.50;99.90
19941;DHT22;10132;50.864;5.176;2023-09-30T08:48:22;14.60;99.90
19941;DHT22;10132;50.864;5.176;2023-09-30T08:50:26;14.70;99.90
19941;DHT22;10132;50.864;5.176;2023-09-30T08:52:29;14.60;99.90
19941;DHT22;10132;50.864;5.176;2023-09-30T08:54:32;14.50;99.90
19941;DHT22;10132;50.864;5.176;2023-09-30T08:56:34;14.30;99.90
19941;DHT22;10132;50.864;5.176;2023-09-30T08:58:36;14.30;99.90
19941;DHT22;10132;50.864;5.176;2023-09-30T09:00:40;14.30;99.90
19941;DHT22;10132;50.864;5.176;2023-09-30T09:02:42;14.40;99.90
19941;DHT22;10132;50.864;5.176;2023-09-30T09:04:45;14.60;99.90
19941;DHT22;10132;50.864;5.176;2023-09-30T09:06:47;14.90;99.90
19941;DHT22;10132;50.864;5.176;2023-09-30T09:08:48;15.00;99.90
19941;DHT22;10132;50.864;5.176;2023-09-30T09:10:55;15.10;99.90
19941;DHT22;10132;50.864;5.176;2023-09-30T09:12:58;15.20;99.90
19941;DHT22;10132;50.864;5.176;2023-09-30T09:15:01;15.30;99.90
19941;DHT22;10132;50.864;5.176;2023-09-30T09:17:07;15.40;99.90
19941;DHT22;10132;50.864;5.176;2023-09-30T09:19:13;15.50;99.90
19941;DHT22;10132;50.864;5.176;2023-09-30T09:21:17;15.50;99.90
19941;DHT22;10132;50.864;5.176;2023-09-30T09:23:21;15.60;99.90
19941;DHT22;10132;50.864;5.176;2023-09-30T09:25:22;15.80;99.90
19941;DHT22;10132;50.864;5.176;2023-09-30T09:27:24;16.00;99.90
19941;DHT22;10132;50.864;5.176;2023-09-30T09:29:26;16.00;99.90
19941;DHT22;10132;50.864;5.176;2023-09-30T09:31:30;16.30;99.90
19941;DHT22;10132;50.864;5.176;2023-09-30T09:33:36;16.30;99.90
19941;DHT22;10132;50.864;5.176;2023-09-30T09:35:38;16.50;99.90
19941;DHT22;10132;50.864;5.176;2023-09-30T09:37:40;16.60;99.90
19941;DHT22;10132;50.864;5.176;2023-09-30T09:39:49;16.50;99.90
19941;DHT22;10132;50.864;5.176;2023-09-30T09:41:53;16.60;99.90
19941;DHT22;10132;50.864;5.176;2023-09-30T09:43:58;16.80;99.90
19941;DHT22;10132;50.864;5.176;2023-09-30T09:46:01;16.70;99.90
19941;DHT22;10132;50.864;5.176;2023-09-30T09:48:05;16.50;99.90
19941;DHT22;10132;50.864;5.176;2023-09-30T09:50:10;16.40;99.90
19941;DHT22;10132;50.864;5.176;2023-09-30T09:52:11;16.50;99.90
19941;DHT22;10132;50.864;5.176;2023-09-30T09:54:16;16.40;99.90
19941;DHT22;10132;50.864;5.176;2023-09-30T09:56:20;16.50;99.90
19941;DHT22;10132;50.864;5.176;2023-09-30T09:58:24;16.60;99.90
19941;DHT22;10132;50.864;5.176;2023-09-30T10:00:27;16.80;99.90
19941;DHT22;10132;50.864;5.176;2023-09-30T10:02:31;17.10;99.90
19941;DHT22;10132;50.864;5.176;2023-09-30T10:04:34;16.80;99.90
19941;DHT22;10132;50.864;5.176;2023-09-30T10:06:37;16.60;99.90
19941;DHT22;10132;50.864;5.176;2023-09-30T10:08:43;16.90;99.90
19941;DHT22;10132;50.864;5.176;2023-09-30T10:10:47;17.30;99.90
19941;DHT22;10132;50.864;5.176;2023-09-30T10:12:48;17.50;99.90
19941;DHT22;10132;50.864;5.176;2023-09-30T10:14:52;17.30;99.90
19941;DHT22;10132;50.864;5.176;2023-09-30T10:16:53;17.50;99.90
19941;DHT22;10132;50.864;5.176;2023-09-30T10:19:07;17.60;99.90
19941;DHT22;10132;50.864;5.176;2023-09-30T10:21:09;17.60;99.90
19941;DHT22;10132;50.864;5.176;2023-09-30T10:23:32;17.60;99.90
19941;DHT22;10132;50.864;5.176;2023-09-30T10:25:35;17.70;99.90
19941;DHT22;10132;50.864;5.176;2023-09-30T10:27:38;17.90;99.90
19941;DHT22;10132;50.864;5.176;2023-09-30T10:29:40;17.90;99.90
19941;DHT22;10132;50.864;5.176;2023-09-30T10:31:50;17.70;99.90
19941;DHT22;10132;50.864;5.176;2023-09-30T10:34:20;17.60;99.90
19941;DHT22;10132;50.864;5.176;2023-09-30T10:36:26;17.50;99.90
19941;DHT22;10132;50.864;5.176;2023-09-30T10:38:42;17.60;99.90
19941;DHT22;10132;50.864;5.176;2023-09-30T10:40:45;17.60;99.90
19941;DHT22;10132;50.864;5.176;2023-09-30T10:42:48;17.90;99.90
19941;DHT22;10132;50.864;5.176;2023-09-30T10:44:51;17.90;99.90
19941;DHT22;10132;50.864;5.176;2023-09-30T10:46:54;17.80;99.90
19941;DHT22;10132;50.864;5.176;2023-09-30T10:48:56;17.60;99.90
19941;DHT22;10132;50.864;5.176;2023-09-30T10:50:58;17.40;99.90
19941;DHT22;10132;50.864;5.176;2023-09-30T10:53:04;17.40;99.90
19941;DHT22;10132;50.864;5.176;2023-09-30T10:55:09;17.80;99.90
19941;DHT22;10132;50.864;5.176;2023-09-30T10:57:11;17.90;99.90
19941;DHT22;10132;50.864;5.176;2023-09-30T10:59:18;17.90;99.90
19941;DHT22;10132;50.864;5.176;2023-09-30T11:01:22;17.80;99.90
19941;DHT22;10132;50.864;5.176;2023-09-30T11:03:24;17.80;99.90
19941;DHT22;10132;50.864;5.176;2023-09-30T11:05:26;17.90;99.90
19941;DHT22;10132;50.864;5.176;2023-09-30T11:07:29;18.00;99.90
19941;DHT22;10132;50.864;5.176;2023-09-30T11:09:34;18.50;99.90
19941;DHT22;10132;50.864;5.176;2023-09-30T11:11:40;18.80;99.90
19941;DHT22;10132;50.864;5.176;2023-09-30T11:13:44;19.20;99.90
19941;DHT22;10132;50.864;5.176;2023-09-30T11:15:45;19.20;99.90
19941;DHT22;10132;50.864;5.176;2023-09-30T11:17:48;19.50;99.90
19941;DHT22;10132;50.864;5.176;2023-09-30T11:19:50;19.30;99.90
19941;DHT22;10132;50.864;5.176;2023-09-30T11:21:54;19.20;99.90
19941;DHT22;10132;50.864;5.176;2023-09-30T11:23:57;18.90;99.90
19941;DHT22;10132;50.864;5.176;2023-09-30T11:25:59;18.70;99.90
19941;DHT22;10132;50.864;5.176;2023-09-30T11:28:14;18.40;99.90
19941;DHT22;10132;50.864;5.176;2023-09-30T11:30:16;18.50;99.90
19941;DHT22;10132;50.864;5.176;2023-09-30T11:32:23;18.60;99.90
19941;DHT22;10132;50.864;5.176;2023-09-30T11:34:32;19.20;99.90
19941;DHT22;10132;50.864;5.176;2023-09-30T11:36:35;19.50;99.90
19941;DHT22;10132;50.864;5.176;2023-09-30T11:38:44;20.20;99.90
19941;DHT22;10132;50.864;5.176;2023-09-30T11:41:01;20.30;99.90
19941;DHT22;10132;50.864;5.176;2023-09-30T11:43:09;20.20;99.90
19941;DHT22;10132;50.864;5.176;2023-09-30T11:45:20;20.20;99.90
19941;DHT22;10132;50.864;5.176;2023-09-30T11:47:28;19.60;99.90
19941;DHT22;10132;50.864;5.176;2023-09-30T11:49:32;19.30;99.90
19941;DHT22;10132;50.864;5.176;2023-09-30T11:51:42;19.30;99.90
19941;DHT22;10132;50.864;5.176;2023-09-30T11:53:46;19.60;99.90
19941;DHT22;10132;50.864;5.176;2023-09-30T11:55:51;19.70;99.90
19941;DHT22;10132;50.864;5.176;2023-09-30T11:57:56;20.00;99.90
19941;DHT22;10132;50.864;5.176;2023-09-30T11:59:59;20.00;99.90
19941;DHT22;10132;50.864;5.176;2023-09-30T12:02:03;20.00;99.90
19941;DHT22;10132;50.864;5.176;2023-09-30T12:04:06;19.80;99.90
19941;DHT22;10132;50.864;5.176;2023-09-30T12:06:09;19.70;99.90
19941;DHT22;10132;50.864;5.176;2023-09-30T12:08:14;19.30;99.90
19941;DHT22;10132;50.864;5.176;2023-09-30T12:10:16;19.10;99.90
19941;DHT22;10132;50.864;5.176;2023-09-30T12:12:18;19.50;99.90
19941;DHT22;10132;50.864;5.176;2023-09-30T12:14:20;19.80;99.90
19941;DHT22;10132;50.864;5.176;2023-09-30T12:16:22;20.30;99.90
19941;DHT22;10132;50.864;5.176;2023-09-30T12:18:26;20.70;99.90
19941;DHT22;10132;50.864;5.176;2023-09-30T12:20:28;21.20;99.90
19941;DHT22;10132;50.864;5.176;2023-09-30T12:22:31;21.20;99.90
19941;DHT22;10132;50.864;5.176;2023-09-30T12:24:33;20.90;99.90
19941;DHT22;10132;50.864;5.176;2023-09-30T12:26:35;20.80;99.90
19941;DHT22;10132;50.864;5.176;2023-09-30T12:28:38;21.00;99.90
19941;DHT22;10132;50.864;5.176;2023-09-30T12:30:41;21.00;99.90
19941;DHT22;10132;50.864;5.176;2023-09-30T12:32:43;21.20;99.90
19941;DHT22;10132;50.864;5.176;2023-09-30T12:34:47;21.00;99.90
19941;DHT22;10132;50.864;5.176;2023-09-30T12:36:49;21.40;99.90
19941;DHT22;10132;50.864;5.176;2023-09-30T12:38:52;21.40;99.90
19941;DHT22;10132;50.864;5.176;2023-09-30T12:40:54;21.90;99.90
19941;DHT22;10132;50.864;5.176;2023-09-30T12:42:56;22.30;99.90
19941;DHT22;10132;50.864;5.176;2023-09-30T12:44:59;22.50;99.90
19941;DHT22;10132;50.864;5.176;2023-09-30T12:47:01;22.40;99.90
19941;DHT22;10132;50.864;5.176;2023-09-30T12:49:04;22.30;99.90
19941;DHT22;10132;50.864;5.176;2023-09-30T12:51:06;21.60;99.90
19941;DHT22;10132;50.864;5.176;2023-09-30T12:53:09;21.90;99.90
19941;DHT22;10132;50.864;5.176;2023-09-30T12:55:10;21.60;99.90
19941;DHT22;10132;50.864;5.176;2023-09-30T12:57:12;21.50;99.90
19941;DHT22;10132;50.864;5.176;2023-09-30T12:59:18;21.20;99.90